Terminal Aerodrome Forecast
Issued by NWS

Home | Current Version | Previous Version | Text Only | Print | Product List | Glossary On
Versions: 1 2 3 4 5 6 7 8 9 10 11 12 13 14 15 16 17 18 19 20 21 22 23 24 25 26 27 28 29
000
FTUS42 KCAE 051900 AAA
TAFDNL
TAF AMD
KDNL 051918Z 0519/0618 30018G28KT P6SM -SHRA SCT030 BKN040
      TEMPO 0519/0521 3SM SHRA BKN015
     FM052300 32010G20KT P6SM -RA OVC015
     FM060400 03012G20KT P6SM OVC035
     FM061400 04010G16KT P6SM BKN050=

USA.gov is the U.S. government's official web portal to all federal, state and local government web resources and services.